createdAt,value
2022-09-13T00:01:17.212Z,81.67
2022-09-13T00:03:44.827Z,81.88
2022-09-13T00:06:19.267Z,82.12
2022-09-13T00:08:49.659Z,82.31
2022-09-13T00:11:24.208Z,82.68
2022-09-13T00:13:53.392Z,83.68
2022-09-13T00:16:24.657Z,84.59
2022-09-13T00:18:54.520Z,84.81
2022-09-13T00:21:24.802Z,84.23
2022-09-13T00:23:54.273Z,84.77
2022-09-13T00:26:27.399Z,85.16
2022-09-13T00:28:57.612Z,85.29
2022-09-13T00:31:27.697Z,84.79
2022-09-13T00:33:56.069Z,85.22
2022-09-13T00:36:23.336Z,85.06
2022-09-13T00:38:51.956Z,85.03
2022-09-13T00:41:22.138Z,85.42
2022-09-13T00:43:57.979Z,85.43
2022-09-13T00:46:28.205Z,85.35
2022-09-13T00:49:11.816Z,85.61
2022-09-13T00:51:42.447Z,85.94
2022-09-13T00:54:10.568Z,86.39
2022-09-13T00:56:41.692Z,86.98
2022-09-13T00:59:26.836Z,87.38
2022-09-13T01:01:56.862Z,87.85
2022-09-13T01:04:32.776Z,88.15
2022-09-13T01:07:04.604Z,88.90
2022-09-13T01:09:36.835Z,89.23
2022-09-13T01:12:18.764Z,89.55
2022-09-13T01:14:47.849Z,89.83
2022-09-13T01:17:15.023Z,89.82
2022-09-13T01:19:42.248Z,89.78
2022-09-13T01:22:37.227Z,90.02
2022-09-13T01:25:34.364Z,90.92
2022-09-13T01:28:11.406Z,91.29
2022-09-13T01:30:47.693Z,91.64
2022-09-13T01:33:50.078Z,92.20
2022-09-13T01:36:58.551Z,92.26
2022-09-13T01:39:41.454Z,92.56
2022-09-13T01:42:43.171Z,92.52
2022-09-13T01:45:23.268Z,92.13
2022-09-13T01:47:54.235Z,92.68
2022-09-13T01:50:44.664Z,92.98
2022-09-13T01:53:31.405Z,92.89
2022-09-13T01:56:09.895Z,93.30
2022-09-13T01:58:44.055Z,93.65
2022-09-13T02:01:32.359Z,93.90
2022-09-13T02:04:03.006Z,94.01
2022-09-13T02:06:38.091Z,94.17
2022-09-13T02:09:12.363Z,93.28
2022-09-13T02:11:43.211Z,92.79
2022-09-13T02:14:22.168Z,92.71
2022-09-13T02:17:06.222Z,92.80
2022-09-13T02:20:07.079Z,93.85
2022-09-13T02:22:39.892Z,92.97
2022-09-13T02:25:12.671Z,92.88
2022-09-13T02:27:45.329Z,93.16
2022-09-13T02:30:14.503Z,93.62
2022-09-13T02:32:52.994Z,94.49
2022-09-13T02:35:36.790Z,94.80
2022-09-13T02:38:16.957Z,95.20
2022-09-13T02:40:53.794Z,95.36
2022-09-13T02:43:32.123Z,95.61
2022-09-13T02:46:12.937Z,95.93
2022-09-13T02:49:02.616Z,95.95
2022-09-13T02:51:42.293Z,96.14
2022-09-13T02:54:37.362Z,96.91
2022-09-13T02:57:18.457Z,96.97
2022-09-13T02:59:48.185Z,97.03
2022-09-13T03:02:19.867Z,97.13
2022-09-13T03:04:47.699Z,96.91
2022-09-13T03:07:19.025Z,96.98
2022-09-13T03:09:56.373Z,96.77
2022-09-13T03:12:48.533Z,96.57
2022-09-13T03:15:30.838Z,96.03
2022-09-13T03:18:22.317Z,95.33
2022-09-13T03:21:07.704Z,94.90
2022-09-13T03:24:02.103Z,94.31
2022-09-13T03:26:46.189Z,93.68
2022-09-13T03:29:32.041Z,93.14
2022-09-13T03:32:22.775Z,94.41
2022-09-13T03:35:06.097Z,93.62
2022-09-13T03:37:48.566Z,93.96
2022-09-13T03:40:44.856Z,94.26
2022-09-13T03:43:16.598Z,95.18
2022-09-13T03:45:49.752Z,94.63
2022-09-13T03:48:18.552Z,92.61
2022-09-13T03:50:47.651Z,91.69
2022-09-13T03:53:21.006Z,92.67
2022-09-13T03:55:48.065Z,94.41
2022-09-13T03:58:22.011Z,95.73
2022-09-13T04:00:52.363Z,96.67
2022-09-13T04:03:19.877Z,97.70
2022-09-13T04:05:47.116Z,98.07
2022-09-13T04:08:14.301Z,98.48
2022-09-13T04:10:41.987Z,98.62
2022-09-13T04:13:09.291Z,98.77
2022-09-13T04:15:36.442Z,98.50
2022-09-13T04:18:03.688Z,97.59
2022-09-13T04:20:32.714Z,96.77
2022-09-13T04:23:01.169Z,96.53
2022-09-13T04:25:30.211Z,96.69
2022-09-13T04:28:00.040Z,96.83
2022-09-13T04:30:28.597Z,97.02
2022-09-13T04:33:07.881Z,96.68
2022-09-13T04:35:39.410Z,96.69
2022-09-13T04:38:07.568Z,96.82
2022-09-13T04:40:35.894Z,96.94
2022-09-13T04:43:04.047Z,96.67
2022-09-13T04:45:31.511Z,96.07
2022-09-13T04:47:59.382Z,95.50
2022-09-13T04:50:26.641Z,94.70
2022-09-13T04:52:57.174Z,94.19
2022-09-13T04:55:26.331Z,94.04
2022-09-13T04:57:54.898Z,93.51
2022-09-13T05:00:23.081Z,92.57
2022-09-13T05:02:55.635Z,92.55
2022-09-13T05:05:23.747Z,92.03
2022-09-13T05:07:51.959Z,91.45
2022-09-13T05:10:24.323Z,91.10
2022-09-13T05:12:53.884Z,90.67
2022-09-13T05:15:21.321Z,90.57
2022-09-13T05:17:48.408Z,90.49
2022-09-13T05:20:16.259Z,89.81
2022-09-13T05:22:43.541Z,89.94
2022-09-13T05:25:10.743Z,89.13
2022-09-13T05:27:38.115Z,89.02
2022-09-13T05:30:06.104Z,88.93
2022-09-13T05:32:33.230Z,87.99
2022-09-13T05:35:00.453Z,87.79
2022-09-13T05:37:27.705Z,87.35
2022-09-13T05:40:10.625Z,87.58
2022-09-13T05:42:39.676Z,87.27
2022-09-13T05:45:07.519Z,86.54
2022-09-13T05:47:34.941Z,86.63
2022-09-13T05:50:10.427Z,86.08
2022-09-13T05:52:39.731Z,86.01
2022-09-13T05:55:07.421Z,85.87
2022-09-13T05:57:34.600Z,85.14
2022-09-13T06:00:02.081Z,84.42
2022-09-13T06:02:40.629Z,83.47
2022-09-13T06:05:10.749Z,83.15
2022-09-13T06:07:41.956Z,82.89
2022-09-13T06:10:10.495Z,82.94
2022-09-13T06:12:38.354Z,82.57
2022-09-13T06:15:06.117Z,81.99
2022-09-13T06:17:33.292Z,81.80
2022-09-13T06:20:00.508Z,81.42
2022-09-13T06:22:33.448Z,81.47
2022-09-13T06:25:00.711Z,80.17
2022-09-13T06:27:30.422Z,80.11
2022-09-13T06:29:57.548Z,78.46
2022-09-13T06:32:25.579Z,76.86
2022-09-13T06:34:53.085Z,76.62
2022-09-13T06:37:20.312Z,76.51
2022-09-13T06:39:47.532Z,76.54
2022-09-13T06:42:15.459Z,77.54
2022-09-13T06:44:46.163Z,77.14
2022-09-13T06:47:13.702Z,76.82
2022-09-13T06:49:40.881Z,75.82
2022-09-13T06:52:08.285Z,76.02
2022-09-13T06:54:35.506Z,75.98
2022-09-13T06:57:03.639Z,75.76
2022-09-13T06:59:31.378Z,75.49
2022-09-13T07:01:58.749Z,75.74
2022-09-13T07:04:26.231Z,75.52
2022-09-13T07:06:54.777Z,74.94
2022-09-13T07:09:22.460Z,75.40
2022-09-13T07:11:52.008Z,75.41
2022-09-13T07:14:22.443Z,75.25
2022-09-13T07:16:51.204Z,75.25
2022-09-13T07:19:22.899Z,74.50
2022-09-13T07:21:50.665Z,74.10
2022-09-13T07:24:18.689Z,73.83
2022-09-13T07:26:46.978Z,73.64
2022-09-13T07:29:22.837Z,72.82
2022-09-13T07:31:52.210Z,72.54
2022-09-13T07:34:22.090Z,71.63
2022-09-13T07:36:50.365Z,71.74
2022-09-13T07:39:22.302Z,71.92
2022-09-13T07:41:50.868Z,70.36
2022-09-13T07:44:18.687Z,70.28
2022-09-13T07:46:46.650Z,69.11
2022-09-13T07:49:17.895Z,69.23
2022-09-13T07:51:45.727Z,70.23
2022-09-13T07:54:18.147Z,69.42
2022-09-13T07:56:45.757Z,68.96
2022-09-13T07:59:15.556Z,69.88
2022-09-13T08:01:45.771Z,69.18
2022-09-13T08:04:17.908Z,68.32
2022-09-13T08:06:46.910Z,68.06
2022-09-13T08:09:15.423Z,67.61
2022-09-13T08:11:46.021Z,68.38
2022-09-13T08:14:15.743Z,67.64
2022-09-13T08:16:43.298Z,67.42
2022-09-13T08:19:13.719Z,66.07
2022-09-13T08:21:42.903Z,66.24
2022-09-13T08:24:15.998Z,66.94
2022-09-13T08:26:43.863Z,65.49
2022-09-13T08:29:12.372Z,64.25
2022-09-13T08:31:39.550Z,64.83
2022-09-13T08:34:11.995Z,64.35
2022-09-13T08:36:41.231Z,64.01
2022-09-13T08:39:09.723Z,64.26
2022-09-13T08:41:40.212Z,63.22
2022-09-13T08:44:29.691Z,62.77
2022-09-13T08:47:09.883Z,61.45
2022-09-13T08:49:47.945Z,61.48
2022-09-13T08:52:15.194Z,61.82
2022-09-13T08:54:43.234Z,61.75
2022-09-13T08:57:19.214Z,60.88
2022-09-13T08:59:48.797Z,58.84
2022-09-13T09:02:47.034Z,57.58
2022-09-13T09:05:30.809Z,56.32
2022-09-13T09:08:12.928Z,53.71
2022-09-13T09:10:47.118Z,50.64
2022-09-13T09:13:26.089Z,49.57
2022-09-13T09:15:58.292Z,49.63
2022-09-13T09:18:33.582Z,50.20
2022-09-13T09:21:04.221Z,50.01
2022-09-13T09:23:41.976Z,50.17
2022-09-13T09:26:18.808Z,51.64
2022-09-13T09:28:59.333Z,52.80
2022-09-13T09:31:59.244Z,54.00
2022-09-13T09:34:48.426Z,53.37
2022-09-13T09:37:27.284Z,51.98
2022-09-13T09:40:01.647Z,51.91
2022-09-13T09:42:40.175Z,52.27
2022-09-13T09:45:29.711Z,49.05
2022-09-13T09:48:02.445Z,50.86
2022-09-13T09:50:35.115Z,50.65
2022-09-13T09:53:15.034Z,48.52
2022-09-13T09:55:48.717Z,48.62
2022-09-13T09:58:19.195Z,49.82
2022-09-13T10:00:57.682Z,49.10
2022-09-13T10:03:27.780Z,49.63
2022-09-13T10:06:11.690Z,49.45
2022-09-13T10:08:41.955Z,50.34
2022-09-13T10:11:10.019Z,50.98
2022-09-13T10:13:38.415Z,48.98
2022-09-13T10:16:21.797Z,48.17
2022-09-13T10:18:48.998Z,47.78
2022-09-13T10:21:19.273Z,46.44
2022-09-13T10:23:50.898Z,47.44
2022-09-13T10:26:20.591Z,47.00
2022-09-13T10:28:58.759Z,45.70
2022-09-13T10:31:39.247Z,47.20
2022-09-13T10:34:28.382Z,47.17
2022-09-13T10:37:13.868Z,47.59
2022-09-13T10:39:50.394Z,48.92
2022-09-13T10:42:23.710Z,46.67
2022-09-13T10:44:58.108Z,47.34
2022-09-13T10:47:27.691Z,46.90
2022-09-13T10:49:57.773Z,46.66
2022-09-13T10:52:40.870Z,46.95
2022-09-13T10:55:19.970Z,46.87
2022-09-13T10:57:49.646Z,47.04
2022-09-13T11:00:20.323Z,48.43
2022-09-13T11:03:00.478Z,48.10
2022-09-13T11:06:20.919Z,47.87
2022-09-13T11:09:09.287Z,45.00
2022-09-13T11:11:46.883Z,44.89
2022-09-13T11:14:34.253Z,46.08
2022-09-13T11:17:20.119Z,46.01
2022-09-13T11:20:02.469Z,46.59
2022-09-13T11:22:41.831Z,48.03
2022-09-13T11:25:46.615Z,47.60
2022-09-13T11:28:29.113Z,48.25
2022-09-13T11:30:56.245Z,47.67
2022-09-13T11:33:44.717Z,45.98
2022-09-13T11:36:59.130Z,46.17
2022-09-13T11:39:53.598Z,45.53
2022-09-13T11:42:31.220Z,44.50
2022-09-13T11:45:37.920Z,45.56
2022-09-13T11:48:23.126Z,44.81
2022-09-13T11:50:56.993Z,45.46
2022-09-13T11:53:36.504Z,45.93
2022-09-13T11:56:11.684Z,44.75
2022-09-13T11:58:58.220Z,43.06
2022-09-13T12:01:34.399Z,44.22
2022-09-13T12:04:14.013Z,43.30
2022-09-13T12:06:50.631Z,41.80
2022-09-13T12:09:21.072Z,43.42
2022-09-13T12:11:58.329Z,42.65
2022-09-13T12:14:38.705Z,41.92
2022-09-13T12:17:22.664Z,42.29
2022-09-13T12:19:55.181Z,42.12
2022-09-13T12:22:30.860Z,43.19
2022-09-13T12:25:03.893Z,44.53
2022-09-13T12:27:56.945Z,43.88
2022-09-13T12:30:29.861Z,42.87
2022-09-13T12:32:59.220Z,41.95
2022-09-13T12:35:35.578Z,42.42
2022-09-13T12:38:32.629Z,41.82
2022-09-13T12:41:21.475Z,41.68
2022-09-13T12:44:15.475Z,41.71
2022-09-13T12:47:11.838Z,41.17
2022-09-13T12:49:52.783Z,42.39
2022-09-13T12:52:44.939Z,42.18
2022-09-13T12:55:47.012Z,41.16
2022-09-13T12:58:37.608Z,41.65
2022-09-13T13:01:08.019Z,41.33
2022-09-13T13:03:45.290Z,40.21
2022-09-13T13:06:27.561Z,41.82
2022-09-13T13:08:57.681Z,40.94
2022-09-13T13:11:28.331Z,40.41
2022-09-13T13:14:09.345Z,41.27
2022-09-13T13:16:48.349Z,42.42
2022-09-13T13:19:33.334Z,41.15
2022-09-13T13:22:38.319Z,41.21
2022-09-13T13:25:39.185Z,41.85
2022-09-13T13:28:43.447Z,40.91
2022-09-13T13:31:10.850Z,41.02
2022-09-13T13:33:51.001Z,39.47
2022-09-13T13:36:28.955Z,40.15
2022-09-13T13:38:57.124Z,40.10
2022-09-13T13:41:33.679Z,40.74
2022-09-13T13:44:02.462Z,39.66
2022-09-13T13:46:38.650Z,40.64
2022-09-13T13:49:30.975Z,40.84
2022-09-13T13:52:18.979Z,41.46
2022-09-13T13:54:47.530Z,41.43
2022-09-13T13:57:26.068Z,41.12
2022-09-13T14:00:12.184Z,41.38
2022-09-13T14:03:10.324Z,39.67
2022-09-13T14:05:49.603Z,39.65
2022-09-13T14:09:06.419Z,39.60
2022-09-13T14:11:51.835Z,39.93
2022-09-13T14:14:27.965Z,40.61
2022-09-13T14:17:17.155Z,40.54
2022-09-13T14:19:59.123Z,40.71
2022-09-13T14:22:28.597Z,41.34
2022-09-13T14:25:18.916Z,41.67
2022-09-13T14:27:51.662Z,40.28
2022-09-13T14:30:36.574Z,40.28
2022-09-13T14:33:06.137Z,40.29
2022-09-13T14:35:33.372Z,40.39
2022-09-13T14:38:23.404Z,39.99
2022-09-13T14:40:58.235Z,40.89
2022-09-13T14:43:27.945Z,40.34
2022-09-13T14:46:07.823Z,40.23
2022-09-13T14:48:46.581Z,40.59
2022-09-13T14:51:42.256Z,40.62
2022-09-13T14:54:28.934Z,40.66
2022-09-13T14:57:00.535Z,41.10
2022-09-13T14:59:35.490Z,41.48
2022-09-13T15:02:25.219Z,40.94
2022-09-13T15:05:00.805Z,40.65
2022-09-13T15:07:36.194Z,39.30
2022-09-13T15:10:32.279Z,39.35
2022-09-13T15:13:05.352Z,40.41
2022-09-13T15:15:35.431Z,41.55
2022-09-13T15:18:19.561Z,40.53
2022-09-13T15:21:09.412Z,40.00
2022-09-13T15:23:40.346Z,40.34
2022-09-13T15:26:20.933Z,40.83
2022-09-13T15:29:04.614Z,41.27
2022-09-13T15:31:34.958Z,41.51
2022-09-13T15:34:40.792Z,41.21
2022-09-13T15:37:12.298Z,41.48
2022-09-13T15:40:02.219Z,42.11
2022-09-13T15:42:30.617Z,41.84
2022-09-13T15:44:58.325Z,42.08
2022-09-13T15:47:25.569Z,42.67
2022-09-13T15:49:53.223Z,42.74
2022-09-13T15:52:23.657Z,42.96
2022-09-13T15:54:52.240Z,43.80
2022-09-13T15:57:27.988Z,43.69
2022-09-13T16:00:01.449Z,43.95
2022-09-13T16:02:36.852Z,44.58
2022-09-13T16:05:04.629Z,44.78
2022-09-13T16:07:31.951Z,45.44
2022-09-13T16:09:59.752Z,45.48
2022-09-13T16:12:27.262Z,46.36
2022-09-13T16:14:55.000Z,47.19
2022-09-13T16:17:27.126Z,46.54
2022-09-13T16:19:55.516Z,47.36
2022-09-13T16:22:23.291Z,47.83
2022-09-13T16:24:50.791Z,49.04
2022-09-13T16:27:19.798Z,48.78
2022-09-13T16:29:48.077Z,49.42
2022-09-13T16:32:15.839Z,49.61
2022-09-13T16:34:43.044Z,50.30
2022-09-13T16:37:15.339Z,50.44
2022-09-13T16:39:43.345Z,50.64
2022-09-13T16:42:11.107Z,50.73
2022-09-13T16:44:38.228Z,50.81
2022-09-13T16:47:05.672Z,51.46
2022-09-13T16:49:33.344Z,51.69
2022-09-13T16:52:01.451Z,52.09
2022-09-13T16:54:37.521Z,52.74
2022-09-13T16:57:06.614Z,52.94
2022-09-13T16:59:34.698Z,53.46
2022-09-13T17:02:03.949Z,53.71
2022-09-13T17:04:33.257Z,53.80
2022-09-13T17:07:02.645Z,54.14
2022-09-13T17:09:30.946Z,54.60
2022-09-13T17:11:58.388Z,54.93
2022-09-13T17:14:28.030Z,55.22
2022-09-13T17:16:57.250Z,55.48
2022-09-13T17:19:31.415Z,56.36
2022-09-13T17:21:58.894Z,57.32
2022-09-13T17:24:28.206Z,57.77
2022-09-13T17:26:57.252Z,57.88
2022-09-13T17:29:31.310Z,58.40
2022-09-13T17:32:08.149Z,58.37
2022-09-13T17:34:35.729Z,58.44
2022-09-13T17:37:03.894Z,58.76
2022-09-13T17:39:31.502Z,59.48
2022-09-13T17:41:59.090Z,59.31
2022-09-13T17:44:26.405Z,59.89
2022-09-13T17:46:54.449Z,60.29
2022-09-13T17:49:21.843Z,60.58
2022-09-13T17:51:49.234Z,61.21
2022-09-13T17:54:16.732Z,61.07
2022-09-13T17:56:45.064Z,61.64
2022-09-13T17:59:20.208Z,61.99
2022-09-13T18:01:51.225Z,62.83
2022-09-13T18:04:21.698Z,63.63
2022-09-13T18:06:51.985Z,64.10
2022-09-13T18:09:19.942Z,63.87
2022-09-13T18:11:47.198Z,64.19
2022-09-13T18:14:16.493Z,64.71
2022-09-13T18:16:44.904Z,65.33
2022-09-13T18:19:12.879Z,65.64
2022-09-13T18:21:41.113Z,65.80
2022-09-13T18:24:08.615Z,65.92
2022-09-13T18:26:36.963Z,66.71
2022-09-13T18:29:09.140Z,66.97
2022-09-13T18:31:37.174Z,66.93
2022-09-13T18:34:11.262Z,67.32
2022-09-13T18:36:38.703Z,67.53
2022-09-13T18:39:07.968Z,67.47
2022-09-13T18:41:38.037Z,67.31
2022-09-13T18:44:05.661Z,67.55
2022-09-13T18:46:34.873Z,67.54
2022-09-13T18:49:03.456Z,67.75
2022-09-13T18:51:36.132Z,67.81
2022-09-13T18:54:04.911Z,68.19
2022-09-13T18:56:32.922Z,68.68
2022-09-13T18:59:02.338Z,68.68
2022-09-13T19:01:35.493Z,69.01
2022-09-13T19:04:14.554Z,68.79
2022-09-13T19:06:48.390Z,69.13
2022-09-13T19:09:16.844Z,69.62
2022-09-13T19:11:48.659Z,69.84
2022-09-13T19:14:29.544Z,70.19
2022-09-13T19:17:04.747Z,69.74
2022-09-13T19:19:32.019Z,70.05
2022-09-13T19:21:59.394Z,69.75
2022-09-13T19:24:28.559Z,70.01
2022-09-13T19:26:56.010Z,69.61
2022-09-13T19:29:23.468Z,69.81
2022-09-13T19:31:52.896Z,69.72
2022-09-13T19:34:22.411Z,69.78
2022-09-13T19:36:53.866Z,69.51
2022-09-13T19:39:21.752Z,69.97
2022-09-13T19:41:51.076Z,70.01
2022-09-13T19:44:18.279Z,70.24
2022-09-13T19:46:46.369Z,69.94
2022-09-13T19:49:16.180Z,69.73
2022-09-13T19:51:47.540Z,69.54
2022-09-13T19:54:20.975Z,69.67
2022-09-13T19:56:48.670Z,69.92
2022-09-13T19:59:19.861Z,70.55
2022-09-13T20:01:47.952Z,71.04
2022-09-13T20:04:21.065Z,70.64
2022-09-13T20:06:50.799Z,71.96
2022-09-13T20:09:19.612Z,71.56
2022-09-13T20:11:48.761Z,71.50
2022-09-13T20:14:18.710Z,71.19
2022-09-13T20:16:46.719Z,72.37
2022-09-13T20:22:08.679Z,72.16
2022-09-13T20:24:36.070Z,72.06
2022-09-13T20:27:04.856Z,72.46
2022-09-13T20:29:32.903Z,72.71
2022-09-13T20:32:00.325Z,71.49
2022-09-13T20:34:28.150Z,70.28
2022-09-13T20:36:55.326Z,71.79
2022-09-13T20:39:22.483Z,72.88
2022-09-13T20:41:50.210Z,73.17
2022-09-13T20:44:17.598Z,74.22
2022-09-13T20:46:44.874Z,74.52
2022-09-13T20:49:12.106Z,75.08
2022-09-13T20:51:39.582Z,74.17
2022-09-13T20:54:06.885Z,74.03
2022-09-13T20:56:35.653Z,74.45
2022-09-13T20:59:03.744Z,74.52
2022-09-13T21:01:32.426Z,75.34
2022-09-13T21:04:00.671Z,75.79
2022-09-13T21:06:32.089Z,76.27
2022-09-13T21:09:02.859Z,76.74
2022-09-13T21:11:34.826Z,76.46
2022-09-13T21:14:08.432Z,76.47
2022-09-13T21:16:39.615Z,76.48
2022-09-13T21:19:08.058Z,76.22
2022-09-13T21:21:40.781Z,76.67
2022-09-13T21:24:11.643Z,76.81
2022-09-13T21:26:42.381Z,77.39
2022-09-13T21:29:11.511Z,76.85
2022-09-13T21:31:39.656Z,76.36
2022-09-13T21:34:12.648Z,76.81
2022-09-13T21:36:40.048Z,78.69
2022-09-13T21:39:07.758Z,78.43
2022-09-13T21:41:35.381Z,77.44
2022-09-13T21:44:02.869Z,77.05
2022-09-13T21:46:32.165Z,78.65
2022-09-13T21:49:03.150Z,76.51
2022-09-13T21:51:36.410Z,77.57
2022-09-13T21:54:06.760Z,78.64
2022-09-13T21:56:38.495Z,79.69
2022-09-13T21:59:08.856Z,80.36
2022-09-13T22:01:39.178Z,80.78
2022-09-13T22:04:09.496Z,80.26
2022-09-13T22:06:40.822Z,79.87
2022-09-13T22:09:16.820Z,79.69
2022-09-13T22:11:47.747Z,80.57
2022-09-13T22:14:22.822Z,80.75
2022-09-13T22:16:56.244Z,80.61
2022-09-13T22:19:29.801Z,80.58
2022-09-13T22:22:03.451Z,80.56
2022-09-13T22:24:42.324Z,80.77
2022-09-13T22:27:12.480Z,81.10
2022-09-13T22:29:41.399Z,81.75
2022-09-13T22:32:10.253Z,81.73
2022-09-13T22:34:38.926Z,82.14
2022-09-13T22:37:07.654Z,81.32
2022-09-13T22:39:34.908Z,81.49
2022-09-13T22:42:02.248Z,81.48
2022-09-13T22:44:29.689Z,81.52
2022-09-13T22:47:00.356Z,81.58
2022-09-13T22:49:27.732Z,82.15
2022-09-13T22:51:55.097Z,81.75
2022-09-13T22:54:22.269Z,81.12
2022-09-13T22:56:49.450Z,81.96
2022-09-13T22:59:20.018Z,81.19
2022-09-13T23:01:47.547Z,80.92
2022-09-13T23:04:15.111Z,82.16
2022-09-13T23:06:45.543Z,82.14
2022-09-13T23:09:18.352Z,82.08
2022-09-13T23:11:47.762Z,81.94
2022-09-13T23:14:17.507Z,82.12
2022-09-13T23:16:52.523Z,82.99
2022-09-13T23:19:22.083Z,83.36
2022-09-13T23:21:49.474Z,83.78
2022-09-13T23:24:18.450Z,83.07
2022-09-13T23:26:46.684Z,83.06
2022-09-13T23:29:16.060Z,83.01
2022-09-13T23:31:43.698Z,83.08
2022-09-13T23:34:12.551Z,83.46
2022-09-13T23:36:41.678Z,83.82
2022-09-13T23:39:13.301Z,83.77
2022-09-13T23:41:40.474Z,83.57
2022-09-13T23:44:07.993Z,83.46
2022-09-13T23:46:35.624Z,83.13
2022-09-13T23:49:02.908Z,81.83
2022-09-13T23:51:30.983Z,81.21
2022-09-13T23:53:58.673Z,82.23
2022-09-13T23:56:26.950Z,82.87
2022-09-13T23:59:00.524Z,82.33
